Aérodrome :
LOGIN :

S'inscrire | Disclaimer

   EN    FR    IT 

 










Légende :    VFR   VFR Marginal   IFR   IFR Intensif   IFR Très Intensif
Visi : 
Plafond : 
>= 8 km
>= 3000ft
5 à 8 km
1000 à 3000 ft
1500m à 5 km
500 à 1000 ft
800 à 1500m
200 à 500 ft
< 800m
< 200 ft
Symboles :   Orages  Brouillard  Fortes neiges  Fortes précipitations  Vent > 20 kt
SIGMETs :   Divers  Orages  Givrage  Turbulence  Onde Orograph.  Cendres Volcan.







- Altitude de l'aérodrome : 512 ft
- Code IATA : URO
- Voir les cartes d'approche


LFOP - Rouen Vallée de Seine

DERNIER METAR :
  • 231430Z AUTO 34017KT 9999 BKN010 OVC019 12/10 Q1018 TEMPO 34015G30KT 3000 SHRA BKN008 BKN015CB

METARs EXPIRÉS :
  • 231400Z AUTO 34018G29KT 9999 -RA BKN009 OVC014 13/11 Q1017 TEMPO 3000 SHRA BKN008 BKN015CB
  • 231330Z AUTO 34013G25KT 300V020 9999 BKN008 OVC013 14/12 Q1016 TEMPO 3000 SHRA BKN008 BKN015CB
  • 231300Z AUTO 34009KT 9999 +DZ BKN009 BKN014 BKN032 14/13 Q1015 TEMPO 34015G30KT 3000 SHRA BKN008 BKN015CB
  • 231230Z AUTO 34011KT 6000 -RA BKN009/// OVC014/// ///TCU 14/13 Q1014 TEMPO 34015G30KT 3000 SHRA BKN008 BKN015CB
  • 231200Z AUTO 33011KT 9999 -RA BKN010/// BKN015/// BKN020/// ///TCU 15/14 Q1013 TEMPO 34015G30KT 3000 SHRA BKN008 BKN015CB

TAF AMD TAF LFOP
Valide du 23 à 12h jusqu'au 24 à 12h UTC


231229Z 2312/2412 34015KT 9999 BKN015
TEMPO 2313/2318 34015G30KT 3000 SHRA BKN008 BKN015CB
BECMG 2321/2323 30005KT NSC
TEMPO 2403/2407 4000 BR
ATIS : +33 2 35 80 80 34
Météo : +33 2 32 86 52 80
Pas de NOTAMs connus pour ce terrain.
2 SIGMETs publiés pour la FIR Paris (LFFF) :
 
Turbulence forte
LFFF SIGMET 2 VALID 231200/231600 LFPW
LFFF PARIS FIR/UIR SEV TURB FCST WI N5030 E00345 - N4930 E00600 - N4900 E00500 - N4945 E00300 - N5030 E00345 SFC/FL050 STNR NC=
Turbulence forte
LFFF SIGMET 1 VALID 231100/231500 LFPW
LFFF PARIS FIR/UIR SEV TURB FCST WI N4945 W00015 - N5000 W00015 - N5030 E00030 - N4945 W00015 FL350/430 STNR NC=



MET'MAP, la Météo Aéronautique d'un coup d'oeil ! - Copyright ORBIFLY Décembre 2007 - Disclaimer

ORBIFLY MET'MAP TEAM :

Programmation & Développement : Alexandra Zaïnal
Conception & Développement : Baudouin d'Aumeries
Co-Programmation & Développement : Marc-Olivier Méhu
Soutien technique & logistique : Manuel Goepfert

Contact : metmap@orbifly.com




SOURCES & CREDITS :

   NOAA